createdAt,value
2022-09-22T00:03:04.102Z,9.20
2022-09-22T00:06:10.872Z,9.20
2022-09-22T00:08:47.056Z,9.20
2022-09-22T00:11:36.726Z,9.20
2022-09-22T00:17:03.240Z,9.10
2022-09-22T00:19:38.241Z,9.10
2022-09-22T00:22:22.387Z,9.10
2022-09-22T00:25:08.090Z,9.10
2022-09-22T00:27:53.319Z,9.10
2022-09-22T00:30:32.903Z,9.00
2022-09-22T00:33:10.423Z,9.00
2022-09-22T00:35:50.096Z,8.90
2022-09-22T00:38:32.023Z,9.00
2022-09-22T00:41:26.306Z,9.00
2022-09-22T00:44:31.840Z,9.00
2022-09-22T00:47:07.536Z,9.10
2022-09-22T00:49:50.221Z,9.10
2022-09-22T00:52:30.697Z,9.10
2022-09-22T00:55:18.829Z,9.10
2022-09-22T01:00:35.170Z,9.00
2022-09-22T01:03:07.216Z,9.00
2022-09-22T01:05:38.018Z,9.00
2022-09-22T01:08:06.034Z,9.00
2022-09-22T01:10:35.383Z,9.10
2022-09-22T01:13:17.823Z,9.10
2022-09-22T01:15:55.157Z,9.10
2022-09-22T01:18:37.602Z,9.00
2022-09-22T01:21:20.377Z,9.00
2022-09-22T01:24:11.660Z,9.00
2022-09-22T01:27:27.920Z,9.00
2022-09-22T01:30:25.588Z,9.00
2022-09-22T01:33:18.013Z,9.00
2022-09-22T01:35:58.656Z,8.80
2022-09-22T01:38:33.683Z,8.80
2022-09-22T01:41:05.955Z,8.80
2022-09-22T01:43:40.001Z,8.90
2022-09-22T01:46:13.258Z,8.90
2022-09-22T01:48:47.682Z,8.90
2022-09-22T01:51:20.551Z,8.90
2022-09-22T01:54:05.125Z,8.80
2022-09-22T01:56:35.859Z,8.80
2022-09-22T01:59:07.433Z,8.70
2022-09-22T02:01:39.950Z,8.70
2022-09-22T02:04:12.394Z,8.70
2022-09-22T02:06:44.379Z,8.70
2022-09-22T02:09:14.132Z,8.60
2022-09-22T02:11:43.188Z,8.60
2022-09-22T02:14:11.963Z,8.60
2022-09-22T02:16:39.999Z,8.60
2022-09-22T02:19:16.229Z,8.60
2022-09-22T02:21:46.769Z,8.60
2022-09-22T02:24:32.433Z,8.60
2022-09-22T02:27:03.021Z,8.50
2022-09-22T02:29:33.359Z,8.60
2022-09-22T02:32:06.188Z,8.60
2022-09-22T02:34:35.809Z,8.50
2022-09-22T02:37:09.644Z,8.50
2022-09-22T02:39:43.328Z,8.50
2022-09-22T02:42:26.783Z,8.40
2022-09-22T02:45:01.375Z,8.50
2022-09-22T02:47:35.045Z,8.50
2022-09-22T02:50:08.340Z,8.50
2022-09-22T02:52:37.756Z,8.50
2022-09-22T02:55:06.898Z,8.50
2022-09-22T02:57:34.943Z,8.50
2022-09-22T03:00:03.230Z,8.50
2022-09-22T03:02:31.212Z,8.40
2022-09-22T03:05:01.103Z,8.40
2022-09-22T03:07:30.587Z,8.40
2022-09-22T03:09:58.518Z,8.40
2022-09-22T03:12:26.699Z,8.40
2022-09-22T03:14:54.621Z,8.40
2022-09-22T03:17:22.683Z,8.40
2022-09-22T03:19:50.731Z,8.40
2022-09-22T03:22:18.658Z,8.40
2022-09-22T03:24:47.964Z,8.40
2022-09-22T03:27:15.943Z,8.40
2022-09-22T03:29:43.893Z,8.40
2022-09-22T03:32:11.885Z,8.40
2022-09-22T03:34:39.865Z,8.30
2022-09-22T03:37:07.945Z,8.30
2022-09-22T03:39:35.927Z,8.30
2022-09-22T03:42:05.652Z,8.30
2022-09-22T03:44:33.672Z,8.30
2022-09-22T03:47:01.985Z,8.20
2022-09-22T03:49:29.941Z,8.30
2022-09-22T03:51:58.163Z,8.20
2022-09-22T03:54:26.577Z,8.20
2022-09-22T03:56:54.590Z,8.20
2022-09-22T03:59:24.031Z,8.20
2022-09-22T04:01:56.073Z,8.20
2022-09-22T04:04:26.059Z,8.20
2022-09-22T04:06:54.073Z,8.10
2022-09-22T04:09:22.056Z,8.10
2022-09-22T04:11:50.467Z,8.10
2022-09-22T04:14:18.398Z,8.10
2022-09-22T04:16:47.713Z,8.10
2022-09-22T04:19:16.838Z,8.00
2022-09-22T04:21:45.258Z,8.00
2022-09-22T04:24:13.306Z,7.90
2022-09-22T04:26:56.413Z,7.90
2022-09-22T04:29:29.320Z,8.00
2022-09-22T04:31:58.663Z,8.00
2022-09-22T04:34:26.597Z,8.00
2022-09-22T04:36:54.565Z,8.00
2022-09-22T04:39:23.985Z,8.00
2022-09-22T04:41:52.332Z,8.00
2022-09-22T04:44:20.284Z,8.00
2022-09-22T04:46:49.578Z,8.00
2022-09-22T04:49:19.244Z,8.00
2022-09-22T04:51:47.352Z,8.00
2022-09-22T04:54:15.349Z,8.00
2022-09-22T04:56:43.673Z,7.90
2022-09-22T04:59:11.812Z,7.90
2022-09-22T05:01:40.108Z,8.00
2022-09-22T05:04:09.382Z,7.90
2022-09-22T05:06:38.677Z,7.90
2022-09-22T05:09:06.738Z,7.90
2022-09-22T05:11:34.781Z,7.80
2022-09-22T05:14:02.710Z,7.80
2022-09-22T05:16:32.221Z,7.70
2022-09-22T05:19:00.261Z,7.70
2022-09-22T05:21:28.826Z,7.70
2022-09-22T05:23:58.252Z,7.70
2022-09-22T05:26:26.268Z,7.70
2022-09-22T05:28:54.185Z,7.70
2022-09-22T05:31:22.146Z,7.70
2022-09-22T05:33:50.374Z,7.70
2022-09-22T05:36:18.523Z,7.70
2022-09-22T05:38:46.485Z,7.70
2022-09-22T05:41:15.791Z,7.70
2022-09-22T05:43:43.765Z,7.70
2022-09-22T05:46:11.708Z,7.80
2022-09-22T05:48:39.635Z,7.80
2022-09-22T05:51:07.558Z,7.90
2022-09-22T05:53:35.526Z,7.90
2022-09-22T05:56:03.704Z,7.90
2022-09-22T05:58:32.995Z,7.90
2022-09-22T06:01:01.019Z,8.00
2022-09-22T06:03:29.021Z,8.10
2022-09-22T06:05:57.525Z,8.10
2022-09-22T06:08:25.483Z,8.10
2022-09-22T06:10:53.567Z,8.10
2022-09-22T06:13:21.460Z,8.20
2022-09-22T06:15:50.846Z,8.20
2022-09-22T06:18:24.203Z,8.20
2022-09-22T06:20:54.225Z,8.20
2022-09-22T06:23:22.156Z,8.30
2022-09-22T06:25:50.186Z,8.40
2022-09-22T06:28:18.125Z,8.50
2022-09-22T06:30:46.885Z,8.50
2022-09-22T06:33:16.115Z,8.50
2022-09-22T06:35:45.353Z,8.50
2022-09-22T06:38:15.287Z,8.40
2022-09-22T06:40:44.202Z,8.50
2022-09-22T06:43:22.849Z,8.60
2022-09-22T06:45:52.333Z,8.70
2022-09-22T06:48:23.659Z,8.80
2022-09-22T06:50:53.414Z,8.90
2022-09-22T06:53:24.395Z,9.00
2022-09-22T06:55:54.406Z,9.10
2022-09-22T06:58:22.919Z,9.20
2022-09-22T07:00:51.118Z,9.30
2022-09-22T07:03:22.693Z,9.40
2022-09-22T07:05:54.909Z,9.40
2022-09-22T07:08:23.270Z,9.60
2022-09-22T07:10:55.297Z,9.70
2022-09-22T07:13:23.338Z,9.80
2022-09-22T07:15:51.341Z,10.00
2022-09-22T07:18:19.315Z,10.10
2022-09-22T07:20:49.892Z,10.20
2022-09-22T07:23:21.311Z,10.30
2022-09-22T07:25:56.314Z,10.40
2022-09-22T07:28:25.915Z,10.50
2022-09-22T07:30:53.813Z,10.60
2022-09-22T07:33:23.129Z,10.70
2022-09-22T07:36:01.940Z,10.90
2022-09-22T07:38:33.911Z,11.00
2022-09-22T07:41:04.726Z,11.20
2022-09-22T07:43:32.852Z,11.20
2022-09-22T07:46:00.840Z,11.40
2022-09-22T07:48:42.843Z,11.50
2022-09-22T07:51:17.101Z,11.50
2022-09-22T07:53:46.750Z,11.50
2022-09-22T07:56:20.221Z,11.50
2022-09-22T07:58:51.241Z,11.60
2022-09-22T08:01:20.404Z,11.70
2022-09-22T08:03:48.516Z,11.90
2022-09-22T08:06:19.965Z,12.00
2022-09-22T08:08:52.331Z,12.10
2022-09-22T08:11:22.317Z,12.30
2022-09-22T08:13:52.659Z,12.30
2022-09-22T08:16:22.545Z,12.40
2022-09-22T08:18:51.534Z,12.50
2022-09-22T08:21:23.022Z,12.50
2022-09-22T08:23:53.035Z,12.60
2022-09-22T08:26:22.062Z,12.70
2022-09-22T08:28:52.778Z,12.80
2022-09-22T08:31:21.483Z,13.00
2022-09-22T08:33:51.946Z,13.10
2022-09-22T08:36:21.999Z,13.20
2022-09-22T08:38:50.414Z,13.30
2022-09-22T08:41:26.288Z,13.40
2022-09-22T08:43:56.212Z,13.50
2022-09-22T08:46:27.502Z,13.60
2022-09-22T08:49:19.065Z,13.80
2022-09-22T08:51:55.976Z,13.90
2022-09-22T08:54:31.467Z,14.10
2022-09-22T08:57:31.066Z,14.10
2022-09-22T09:00:18.519Z,14.10
2022-09-22T09:02:52.348Z,14.30
2022-09-22T09:05:48.358Z,14.40
2022-09-22T09:08:40.232Z,14.40
2022-09-22T09:11:20.130Z,14.40
2022-09-22T09:14:00.787Z,14.60
2022-09-22T09:16:45.405Z,14.60
2022-09-22T09:19:18.770Z,14.80
2022-09-22T09:21:52.614Z,14.90
2022-09-22T09:27:28.916Z,15.20
2022-09-22T09:30:03.729Z,15.40
2022-09-22T09:32:38.732Z,15.50
2022-09-22T09:35:12.735Z,15.50
2022-09-22T09:37:41.295Z,15.70
2022-09-22T09:40:17.181Z,15.70
2022-09-22T09:42:47.189Z,15.80
2022-09-22T09:45:17.711Z,16.00
2022-09-22T09:48:09.652Z,15.80
2022-09-22T09:50:38.067Z,15.80
2022-09-22T09:53:08.603Z,15.80
2022-09-22T09:55:38.122Z,15.80
2022-09-22T09:58:11.789Z,15.90
2022-09-22T10:00:56.189Z,16.00
2022-09-22T10:03:29.592Z,16.10
2022-09-22T10:06:02.692Z,16.00
2022-09-22T10:08:36.628Z,16.00
2022-09-22T10:11:08.362Z,16.10
2022-09-22T10:13:37.459Z,16.20
2022-09-22T10:16:23.976Z,16.40
2022-09-22T10:19:03.085Z,16.30
2022-09-22T10:21:31.030Z,16.40
2022-09-22T10:24:00.597Z,16.40
2022-09-22T10:26:31.481Z,16.60
2022-09-22T10:29:19.078Z,16.70
2022-09-22T10:32:12.953Z,16.80
2022-09-22T10:37:18.979Z,16.80
2022-09-22T10:39:50.111Z,16.90
2022-09-22T10:42:32.549Z,17.20
2022-09-22T10:45:04.819Z,17.30
2022-09-22T10:47:40.618Z,17.50
2022-09-22T10:50:43.527Z,17.60
2022-09-22T10:53:32.302Z,18.00
2022-09-22T10:56:08.286Z,18.20
2022-09-22T10:59:01.785Z,18.80
2022-09-22T11:01:44.193Z,19.80
2022-09-22T11:04:21.204Z,21.70
2022-09-22T11:07:26.114Z,24.10
2022-09-22T11:10:17.651Z,26.50
2022-09-22T11:12:54.233Z,28.60
2022-09-22T11:15:39.842Z,30.30
2022-09-22T11:18:37.622Z,31.40
2022-09-22T11:21:20.409Z,32.60
2022-09-22T11:24:00.665Z,32.30
2022-09-22T11:26:44.635Z,32.40
2022-09-22T11:29:32.619Z,32.80
2022-09-22T11:32:09.741Z,33.60
2022-09-22T11:35:05.239Z,34.50
2022-09-22T11:37:49.665Z,35.40
2022-09-22T11:40:29.437Z,36.00
2022-09-22T11:43:09.303Z,36.40
2022-09-22T11:45:47.129Z,36.50
2022-09-22T11:48:31.312Z,36.50
2022-09-22T11:51:16.257Z,35.70
2022-09-22T11:54:05.282Z,35.70
2022-09-22T11:56:39.260Z,35.90
2022-09-22T11:59:15.347Z,35.70
2022-09-22T12:01:44.190Z,35.50
2022-09-22T12:04:21.461Z,35.50
2022-09-22T12:06:55.488Z,36.00
2022-09-22T12:09:37.494Z,36.50
2022-09-22T12:12:07.509Z,36.20
2022-09-22T12:14:38.369Z,36.10
2022-09-22T12:17:12.513Z,36.20
2022-09-22T12:19:54.171Z,35.60
2022-09-22T12:22:31.179Z,35.10
2022-09-22T12:24:59.440Z,35.10
2022-09-22T12:27:30.840Z,35.60
2022-09-22T12:29:59.742Z,35.10
2022-09-22T12:32:36.790Z,35.00
2022-09-22T12:35:07.756Z,35.30
2022-09-22T12:37:38.542Z,36.00
2022-09-22T12:40:25.397Z,36.50
2022-09-22T12:42:55.008Z,36.50
2022-09-22T12:45:30.589Z,35.50
2022-09-22T12:48:00.906Z,35.00
2022-09-22T12:50:38.226Z,35.40
2022-09-22T12:53:12.201Z,35.20
2022-09-22T12:55:40.455Z,35.00
2022-09-22T12:58:40.754Z,35.10
2022-09-22T13:01:35.576Z,34.30
2022-09-22T13:04:15.741Z,32.40
2022-09-22T13:06:59.212Z,31.00
2022-09-22T13:09:30.123Z,30.50
2022-09-22T13:12:24.055Z,30.10
2022-09-22T13:15:02.207Z,28.00
2022-09-22T13:17:44.528Z,26.30
2022-09-22T13:20:22.627Z,25.90
2022-09-22T13:22:57.479Z,25.60
2022-09-22T13:25:28.338Z,25.00
2022-09-22T13:28:21.178Z,24.50
2022-09-22T13:31:03.564Z,23.90
2022-09-22T13:33:35.719Z,23.40
2022-09-22T13:36:06.343Z,22.80
2022-09-22T13:38:39.117Z,22.20
2022-09-22T13:41:13.621Z,21.90
2022-09-22T13:43:44.852Z,21.50
2022-09-22T13:46:21.284Z,21.30
2022-09-22T13:48:51.047Z,21.10
2022-09-22T13:51:19.052Z,21.10
2022-09-22T13:53:52.264Z,21.00
2022-09-22T13:56:23.426Z,21.00
2022-09-22T13:58:54.423Z,20.80
2022-09-22T14:01:24.824Z,20.70
2022-09-22T14:03:54.345Z,20.70
2022-09-22T14:06:24.552Z,20.50
2022-09-22T14:08:55.544Z,20.50
2022-09-22T14:11:25.808Z,20.50
2022-09-22T14:14:00.909Z,20.50
2022-09-22T14:16:33.675Z,20.50
2022-09-22T14:19:06.091Z,20.40
2022-09-22T14:21:41.282Z,20.40
2022-09-22T14:24:15.145Z,20.40
2022-09-22T14:26:49.416Z,20.40
2022-09-22T14:29:20.385Z,20.30
2022-09-22T14:31:53.508Z,20.30
2022-09-22T14:34:26.426Z,20.40
2022-09-22T14:36:56.194Z,20.30
2022-09-22T14:39:31.769Z,20.30
2022-09-22T14:42:08.906Z,20.30
2022-09-22T14:44:42.731Z,20.30
2022-09-22T14:47:24.126Z,20.30
2022-09-22T14:50:07.383Z,20.20
2022-09-22T14:52:38.700Z,20.20
2022-09-22T14:55:16.870Z,20.20
2022-09-22T14:57:47.648Z,20.20
2022-09-22T15:00:34.852Z,20.10
2022-09-22T15:03:05.205Z,20.10
2022-09-22T15:05:34.237Z,20.10
2022-09-22T15:08:03.160Z,20.10
2022-09-22T15:10:35.184Z,20.10
2022-09-22T15:13:20.241Z,20.10
2022-09-22T15:15:49.561Z,20.00
2022-09-22T15:18:16.848Z,19.90
2022-09-22T15:20:47.319Z,19.80
2022-09-22T15:23:18.745Z,19.80
2022-09-22T15:25:49.741Z,19.70
2022-09-22T15:28:19.652Z,19.60
2022-09-22T15:30:49.532Z,19.40
2022-09-22T15:33:18.640Z,19.30
2022-09-22T15:35:48.070Z,19.30
2022-09-22T15:38:19.456Z,19.30
2022-09-22T15:40:49.778Z,19.30
2022-09-22T15:43:20.490Z,19.20
2022-09-22T15:45:49.822Z,19.20
2022-09-22T15:48:26.448Z,19.20
2022-09-22T15:50:55.239Z,19.20
2022-09-22T15:53:24.028Z,19.20
2022-09-22T15:55:56.235Z,19.10
2022-09-22T15:58:24.624Z,19.00
2022-09-22T16:00:53.195Z,19.00
2022-09-22T16:03:23.822Z,19.00
2022-09-22T16:05:56.929Z,18.90
2022-09-22T16:08:28.747Z,18.70
2022-09-22T16:10:59.058Z,18.70
2022-09-22T16:13:27.987Z,18.60
2022-09-22T16:15:56.228Z,18.50
2022-09-22T16:18:24.201Z,18.50
2022-09-22T16:20:52.292Z,18.30
2022-09-22T16:23:20.511Z,18.30
2022-09-22T16:25:53.750Z,18.20
2022-09-22T16:28:23.019Z,18.10
2022-09-22T16:30:50.957Z,18.00
2022-09-22T16:33:18.923Z,18.00
2022-09-22T16:35:47.193Z,17.90
2022-09-22T16:38:15.657Z,17.90
2022-09-22T16:40:44.338Z,17.80
2022-09-22T16:43:13.152Z,17.80
2022-09-22T16:45:59.942Z,17.70
2022-09-22T16:48:27.851Z,17.60
2022-09-22T16:50:56.153Z,17.50
2022-09-22T16:53:24.152Z,17.40
2022-09-22T16:55:52.074Z,17.40
2022-09-22T16:58:20.244Z,17.30
2022-09-22T17:00:49.577Z,17.30
2022-09-22T17:03:18.758Z,17.10
2022-09-22T17:05:46.724Z,17.10
2022-09-22T17:08:15.482Z,17.00
2022-09-22T17:10:44.739Z,16.90
2022-09-22T17:13:12.720Z,16.80
2022-09-22T17:15:40.677Z,16.70
2022-09-22T17:18:12.484Z,16.60
2022-09-22T17:20:40.439Z,16.50
2022-09-22T17:23:08.381Z,16.40
2022-09-22T17:25:36.311Z,16.30
2022-09-22T17:28:04.247Z,16.20
2022-09-22T17:30:32.160Z,16.20
2022-09-22T17:33:02.260Z,16.10
2022-09-22T17:35:31.620Z,16.00
2022-09-22T17:37:59.537Z,15.90
2022-09-22T17:40:27.463Z,15.80
2022-09-22T17:42:57.166Z,15.70
2022-09-22T17:45:25.095Z,15.60
2022-09-22T17:48:10.438Z,15.60
2022-09-22T17:50:57.185Z,15.50
2022-09-22T17:53:42.848Z,15.40
2022-09-22T17:56:13.132Z,15.30
2022-09-22T17:58:41.257Z,15.20
2022-09-22T18:01:09.162Z,15.10
2022-09-22T18:03:38.308Z,15.00
2022-09-22T18:06:14.629Z,14.90
2022-09-22T18:08:44.502Z,14.90
2022-09-22T18:11:13.662Z,14.80
2022-09-22T18:13:41.687Z,14.70
2022-09-22T18:16:21.318Z,14.60
2022-09-22T18:18:49.291Z,14.50
2022-09-22T18:21:18.550Z,14.40
2022-09-22T18:23:46.591Z,14.40
2022-09-22T18:26:17.878Z,14.30
2022-09-22T18:28:47.404Z,14.20
2022-09-22T18:31:15.647Z,14.20
2022-09-22T18:33:45.052Z,14.10
2022-09-22T18:36:13.905Z,14.10
2022-09-22T18:38:44.059Z,14.10
2022-09-22T18:41:12.119Z,14.00
2022-09-22T18:43:43.060Z,14.00
2022-09-22T18:46:18.427Z,14.00
2022-09-22T18:48:46.950Z,13.90
2022-09-22T18:51:15.021Z,13.80
2022-09-22T18:53:44.392Z,13.80
2022-09-22T18:56:16.201Z,13.70
2022-09-22T18:58:44.288Z,13.70
2022-09-22T19:01:14.139Z,13.60
2022-09-22T19:03:42.377Z,13.70
2022-09-22T19:06:10.314Z,13.50
2022-09-22T19:08:38.287Z,13.50
2022-09-22T19:11:07.847Z,13.50
2022-09-22T19:13:37.312Z,13.50
2022-09-22T19:16:05.374Z,13.50
2022-09-22T19:18:33.485Z,13.50
2022-09-22T19:21:03.906Z,13.40
2022-09-22T19:23:32.775Z,13.40
2022-09-22T19:26:00.938Z,13.30
2022-09-22T19:28:31.441Z,13.30
2022-09-22T19:31:01.892Z,13.20
2022-09-22T19:33:32.444Z,13.20
2022-09-22T19:36:00.661Z,13.10
2022-09-22T19:38:28.798Z,13.10
2022-09-22T19:40:59.414Z,12.90
2022-09-22T19:43:28.078Z,12.90
2022-09-22T19:45:57.412Z,12.90
2022-09-22T19:48:25.481Z,12.90
2022-09-22T19:50:53.840Z,12.80
2022-09-22T19:53:21.887Z,12.70
2022-09-22T19:55:50.145Z,12.80
2022-09-22T19:58:18.039Z,12.70
2022-09-22T20:00:46.606Z,12.80
2022-09-22T20:03:15.925Z,12.70
2022-09-22T20:05:44.471Z,12.70
2022-09-22T20:08:15.739Z,12.70
2022-09-22T20:10:44.613Z,12.60
2022-09-22T20:13:26.820Z,12.60
2022-09-22T20:15:54.799Z,12.60
2022-09-22T20:18:24.103Z,12.60
2022-09-22T20:20:53.330Z,12.60
2022-09-22T20:23:22.555Z,12.60
2022-09-22T20:25:54.212Z,12.50
2022-09-22T20:28:22.094Z,12.50
2022-09-22T20:30:50.091Z,12.40
2022-09-22T20:33:22.283Z,12.50
2022-09-22T20:35:53.404Z,12.40
2022-09-22T20:38:21.387Z,12.40
2022-09-22T20:40:49.604Z,12.40
2022-09-22T20:43:17.542Z,12.40
2022-09-22T20:45:45.655Z,12.30
2022-09-22T20:48:17.000Z,12.40
2022-09-22T20:50:44.906Z,12.30
2022-09-22T20:53:14.410Z,12.30
2022-09-22T20:55:42.336Z,12.30
2022-09-22T20:58:12.660Z,12.30
2022-09-22T21:00:40.566Z,12.20
2022-09-22T21:03:08.559Z,12.10
2022-09-22T21:05:36.541Z,12.10
2022-09-22T21:08:18.347Z,12.00
2022-09-22T21:10:47.627Z,12.00
2022-09-22T21:13:15.514Z,12.00
2022-09-22T21:15:43.440Z,11.90
2022-09-22T21:18:11.437Z,11.80
2022-09-22T21:20:41.596Z,11.80
2022-09-22T21:23:09.522Z,11.70
2022-09-22T21:25:37.447Z,11.60
2022-09-22T21:28:07.098Z,11.60
2022-09-22T21:30:35.553Z,11.50
2022-09-22T21:33:08.054Z,11.50
2022-09-22T21:35:39.848Z,11.40
2022-09-22T21:38:07.726Z,11.30
2022-09-22T21:40:35.883Z,11.30
2022-09-22T21:43:03.860Z,11.30
2022-09-22T21:45:33.306Z,11.20
2022-09-22T21:48:01.490Z,11.10
2022-09-22T21:50:29.467Z,11.10
2022-09-22T21:52:57.392Z,11.00
2022-09-22T21:55:27.213Z,11.00
2022-09-22T21:57:55.343Z,10.90
2022-09-22T22:00:42.375Z,10.90
2022-09-22T22:03:29.925Z,10.90
2022-09-22T22:06:05.232Z,10.80
2022-09-22T22:08:37.073Z,10.80
2022-09-22T22:11:07.781Z,10.70
2022-09-22T22:13:36.973Z,10.70
2022-09-22T22:16:07.955Z,10.70
2022-09-22T22:18:37.477Z,10.60
2022-09-22T22:21:07.966Z,10.60
2022-09-22T22:23:37.996Z,10.50
2022-09-22T22:26:11.076Z,10.50
2022-09-22T22:28:39.120Z,10.50
2022-09-22T22:31:09.114Z,10.40
2022-09-22T22:33:40.535Z,10.40
2022-09-22T22:36:11.574Z,10.40
2022-09-22T22:38:41.069Z,10.30
2022-09-22T22:41:11.056Z,10.30
2022-09-22T22:43:39.651Z,10.30
2022-09-22T22:46:09.286Z,10.30
2022-09-22T22:48:38.726Z,10.20
2022-09-22T22:51:11.496Z,10.20
2022-09-22T22:53:39.570Z,10.20
2022-09-22T22:56:10.918Z,10.10
2022-09-22T22:58:39.267Z,10.10
2022-09-22T23:01:10.032Z,10.10
2022-09-22T23:03:43.311Z,10.00
2022-09-22T23:06:12.605Z,10.00
2022-09-22T23:08:41.163Z,9.90
2022-09-22T23:11:11.399Z,9.90
2022-09-22T23:13:41.186Z,9.90
2022-09-22T23:16:11.760Z,9.90
2022-09-22T23:18:43.544Z,9.90
2022-09-22T23:21:14.421Z,9.80
2022-09-22T23:23:44.059Z,9.80
2022-09-22T23:26:13.523Z,9.80
2022-09-22T23:28:41.871Z,9.80
2022-09-22T23:31:11.398Z,9.80
2022-09-22T23:33:43.177Z,9.80
2022-09-22T23:36:15.214Z,9.80
2022-09-22T23:38:43.109Z,9.80
2022-09-22T23:41:11.808Z,9.80
2022-09-22T23:43:39.797Z,9.80
2022-09-22T23:46:08.168Z,9.80
2022-09-22T23:48:37.135Z,9.80
2022-09-22T23:51:06.790Z,9.80
2022-09-22T23:53:36.517Z,9.80
2022-09-22T23:56:07.318Z,9.80
2022-09-22T23:58:35.818Z,9.80
